sensor_id;sensor_type;location;lat;lon;timestamp;temperature;humidity
80701;DHT22;71609;42.630;23.380;2023-09-18T00:01:51;26.40;45.90
80701;DHT22;71609;42.630;23.380;2023-09-18T00:04:16;26.40;45.80
80701;DHT22;71609;42.630;23.380;2023-09-18T00:06:42;26.40;45.90
80701;DHT22;71609;42.630;23.380;2023-09-18T00:09:07;26.40;45.80
80701;DHT22;71609;42.630;23.380;2023-09-18T00:11:37;26.30;45.80
80701;DHT22;71609;42.630;23.380;2023-09-18T00:14:04;26.30;45.80
80701;DHT22;71609;42.630;23.380;2023-09-18T00:16:30;26.30;45.90
80701;DHT22;71609;42.630;23.380;2023-09-18T00:18:55;26.30;45.90
80701;DHT22;71609;42.630;23.380;2023-09-18T00:21:21;26.30;45.90
80701;DHT22;71609;42.630;23.380;2023-09-18T00:23:47;26.30;45.90
80701;DHT22;71609;42.630;23.380;2023-09-18T00:26:12;26.30;45.90
80701;DHT22;71609;42.630;23.380;2023-09-18T00:28:38;26.30;45.80
80701;DHT22;71609;42.630;23.380;2023-09-18T00:31:03;26.30;45.90
80701;DHT22;71609;42.630;23.380;2023-09-18T00:33:29;26.30;46.00
80701;DHT22;71609;42.630;23.380;2023-09-18T00:35:55;26.30;45.90
80701;DHT22;71609;42.630;23.380;2023-09-18T00:38:20;26.30;45.90
80701;DHT22;71609;42.630;23.380;2023-09-18T00:40:46;26.30;45.90
80701;DHT22;71609;42.630;23.380;2023-09-18T00:43:12;26.30;45.90
80701;DHT22;71609;42.630;23.380;2023-09-18T00:45:44;26.30;45.90
80701;DHT22;71609;42.630;23.380;2023-09-18T00:48:11;26.30;45.80
80701;DHT22;71609;42.630;23.380;2023-09-18T00:50:37;26.30;45.90
80701;DHT22;71609;42.630;23.380;2023-09-18T00:53:04;26.30;45.90
80701;DHT22;71609;42.630;23.380;2023-09-18T00:55:30;26.30;45.90
80701;DHT22;71609;42.630;23.380;2023-09-18T00:57:57;26.30;45.90
80701;DHT22;71609;42.630;23.380;2023-09-18T01:00:23;26.30;45.90
80701;DHT22;71609;42.630;23.380;2023-09-18T01:02:49;26.30;45.90
80701;DHT22;71609;42.630;23.380;2023-09-18T01:05:15;26.30;45.80
80701;DHT22;71609;42.630;23.380;2023-09-18T01:07:45;26.30;45.90
80701;DHT22;71609;42.630;23.380;2023-09-18T01:10:11;26.30;45.90
80701;DHT22;71609;42.630;23.380;2023-09-18T01:13:02;26.30;45.90
80701;DHT22;71609;42.630;23.380;2023-09-18T01:15:34;26.30;45.90
80701;DHT22;71609;42.630;23.380;2023-09-18T01:18:01;26.30;45.90
80701;DHT22;71609;42.630;23.380;2023-09-18T01:20:26;26.30;45.90
80701;DHT22;71609;42.630;23.380;2023-09-18T01:22:53;26.30;45.90
80701;DHT22;71609;42.630;23.380;2023-09-18T01:25:18;26.30;45.90
80701;DHT22;71609;42.630;23.380;2023-09-18T01:27:44;26.30;46.90
80701;DHT22;71609;42.630;23.380;2023-09-18T01:30:10;26.30;45.90
80701;DHT22;71609;42.630;23.380;2023-09-18T01:32:37;26.30;45.90
80701;DHT22;71609;42.630;23.380;2023-09-18T01:35:04;26.30;45.90
80701;DHT22;71609;42.630;23.380;2023-09-18T01:37:33;26.30;45.90
80701;DHT22;71609;42.630;23.380;2023-09-18T01:40:01;26.30;45.90
80701;DHT22;71609;42.630;23.380;2023-09-18T01:42:32;26.30;45.90
80701;DHT22;71609;42.630;23.380;2023-09-18T01:44:58;26.30;46.00
80701;DHT22;71609;42.630;23.380;2023-09-18T01:47:24;26.30;45.90
80701;DHT22;71609;42.630;23.380;2023-09-18T01:49:50;26.30;45.90
80701;DHT22;71609;42.630;23.380;2023-09-18T01:52:16;26.30;46.00
80701;DHT22;71609;42.630;23.380;2023-09-18T01:54:41;26.30;45.90
80701;DHT22;71609;42.630;23.380;2023-09-18T01:57:07;26.30;45.90
80701;DHT22;71609;42.630;23.380;2023-09-18T01:59:33;26.30;46.00
80701;DHT22;71609;42.630;23.380;2023-09-18T02:02:00;26.30;45.90
80701;DHT22;71609;42.630;23.380;2023-09-18T02:04:26;26.30;45.90
80701;DHT22;71609;42.630;23.380;2023-09-18T02:06:52;26.30;45.90
80701;DHT22;71609;42.630;23.380;2023-09-18T02:09:18;26.30;45.90
80701;DHT22;71609;42.630;23.380;2023-09-18T02:11:45;26.30;45.90
80701;DHT22;71609;42.630;23.380;2023-09-18T02:14:12;26.30;45.90
80701;DHT22;71609;42.630;23.380;2023-09-18T02:16:39;26.30;45.90
80701;DHT22;71609;42.630;23.380;2023-09-18T02:19:09;26.30;45.90
80701;DHT22;71609;42.630;23.380;2023-09-18T02:21:36;26.30;45.90
80701;DHT22;71609;42.630;23.380;2023-09-18T02:24:03;26.30;45.90
80701;DHT22;71609;42.630;23.380;2023-09-18T02:26:29;26.30;45.90
80701;DHT22;71609;42.630;23.380;2023-09-18T02:28:57;26.30;46.00
80701;DHT22;71609;42.630;23.380;2023-09-18T02:31:23;26.30;45.90
80701;DHT22;71609;42.630;23.380;2023-09-18T02:33:49;26.30;45.90
80701;DHT22;71609;42.630;23.380;2023-09-18T02:36:15;26.30;45.90
80701;DHT22;71609;42.630;23.380;2023-09-18T02:38:41;26.30;46.00
80701;DHT22;71609;42.630;23.380;2023-09-18T02:41:07;26.30;45.90
80701;DHT22;71609;42.630;23.380;2023-09-18T02:43:32;26.30;46.00
80701;DHT22;71609;42.630;23.380;2023-09-18T02:45:58;26.30;45.90
80701;DHT22;71609;42.630;23.380;2023-09-18T02:48:24;26.30;45.90
80701;DHT22;71609;42.630;23.380;2023-09-18T02:50:49;26.30;45.90
80701;DHT22;71609;42.630;23.380;2023-09-18T02:53:21;26.30;45.90
80701;DHT22;71609;42.630;23.380;2023-09-18T02:55:48;26.30;45.90
80701;DHT22;71609;42.630;23.380;2023-09-18T02:58:13;26.30;45.90
80701;DHT22;71609;42.630;23.380;2023-09-18T03:00:43;26.30;46.00
80701;DHT22;71609;42.630;23.380;2023-09-18T03:03:09;26.30;45.90
80701;DHT22;71609;42.630;23.380;2023-09-18T03:05:35;26.30;46.00
80701;DHT22;71609;42.630;23.380;2023-09-18T03:08:01;26.30;46.00
80701;DHT22;71609;42.630;23.380;2023-09-18T03:10:27;26.30;45.90
80701;DHT22;71609;42.630;23.380;2023-09-18T03:12:53;26.30;45.90
80701;DHT22;71609;42.630;23.380;2023-09-18T03:15:19;26.30;46.00
80701;DHT22;71609;42.630;23.380;2023-09-18T03:17:44;26.30;45.90
80701;DHT22;71609;42.630;23.380;2023-09-18T03:20:10;26.30;46.00
80701;DHT22;71609;42.630;23.380;2023-09-18T03:22:36;26.30;45.90
80701;DHT22;71609;42.630;23.380;2023-09-18T03:25:02;26.30;45.90
80701;DHT22;71609;42.630;23.380;2023-09-18T03:27:28;26.30;45.90
80701;DHT22;71609;42.630;23.380;2023-09-18T03:29:54;26.30;45.90
80701;DHT22;71609;42.630;23.380;2023-09-18T03:32:20;26.30;45.90
80701;DHT22;71609;42.630;23.380;2023-09-18T03:34:46;26.30;45.90
80701;DHT22;71609;42.630;23.380;2023-09-18T03:37:12;26.30;45.90
80701;DHT22;71609;42.630;23.380;2023-09-18T03:39:37;26.30;46.00
80701;DHT22;71609;42.630;23.380;2023-09-18T03:42:03;26.30;45.90
80701;DHT22;71609;42.630;23.380;2023-09-18T03:44:29;26.30;46.00
80701;DHT22;71609;42.630;23.380;2023-09-18T03:46:55;26.30;46.00
80701;DHT22;71609;42.630;23.380;2023-09-18T03:49:20;26.30;46.00
80701;DHT22;71609;42.630;23.380;2023-09-18T03:51:46;26.30;45.90
80701;DHT22;71609;42.630;23.380;2023-09-18T03:54:11;26.30;45.90
80701;DHT22;71609;42.630;23.380;2023-09-18T03:56:37;26.30;45.90
80701;DHT22;71609;42.630;23.380;2023-09-18T03:59:04;26.30;45.90
80701;DHT22;71609;42.630;23.380;2023-09-18T04:01:30;26.30;46.00
80701;DHT22;71609;42.630;23.380;2023-09-18T04:03:56;26.30;46.00
80701;DHT22;71609;42.630;23.380;2023-09-18T04:06:21;26.30;46.00
80701;DHT22;71609;42.630;23.380;2023-09-18T04:08:50;26.30;46.00
80701;DHT22;71609;42.630;23.380;2023-09-18T04:11:16;26.30;45.90
80701;DHT22;71609;42.630;23.380;2023-09-18T04:13:42;26.30;46.00
80701;DHT22;71609;42.630;23.380;2023-09-18T04:16:07;26.30;46.20
80701;DHT22;71609;42.630;23.380;2023-09-18T04:18:33;26.20;46.00
80701;DHT22;71609;42.630;23.380;2023-09-18T04:20:59;26.20;45.30
80701;DHT22;71609;42.630;23.380;2023-09-18T04:23:28;26.20;45.20
80701;DHT22;71609;42.630;23.380;2023-09-18T04:25:54;26.20;44.90
80701;DHT22;71609;42.630;23.380;2023-09-18T04:28:21;26.20;44.80
80701;DHT22;71609;42.630;23.380;2023-09-18T04:30:47;26.20;44.90
80701;DHT22;71609;42.630;23.380;2023-09-18T04:33:14;26.10;44.30
80701;DHT22;71609;42.630;23.380;2023-09-18T04:35:40;26.20;44.20
80701;DHT22;71609;42.630;23.380;2023-09-18T04:38:08;26.20;44.40
80701;DHT22;71609;42.630;23.380;2023-09-18T04:40:36;26.10;44.20
80701;DHT22;71609;42.630;23.380;2023-09-18T04:43:02;26.10;44.10
80701;DHT22;71609;42.630;23.380;2023-09-18T04:45:30;26.10;43.90
80701;DHT22;71609;42.630;23.380;2023-09-18T04:47:56;26.10;43.90
80701;DHT22;71609;42.630;23.380;2023-09-18T04:50:22;26.00;43.90
80701;DHT22;71609;42.630;23.380;2023-09-18T04:52:48;26.00;44.00
80701;DHT22;71609;42.630;23.380;2023-09-18T04:55:16;26.00;44.00
80701;DHT22;71609;42.630;23.380;2023-09-18T04:57:41;26.00;44.00
80701;DHT22;71609;42.630;23.380;2023-09-18T05:00:07;26.00;44.00
80701;DHT22;71609;42.630;23.380;2023-09-18T05:02:34;26.00;44.00
80701;DHT22;71609;42.630;23.380;2023-09-18T05:05:00;26.00;43.80
80701;DHT22;71609;42.630;23.380;2023-09-18T05:07:28;26.00;43.70
80701;DHT22;71609;42.630;23.380;2023-09-18T05:09:54;26.00;43.70
80701;DHT22;71609;42.630;23.380;2023-09-18T05:12:20;26.00;43.30
80701;DHT22;71609;42.630;23.380;2023-09-18T05:14:45;26.00;44.30
80701;DHT22;71609;42.630;23.380;2023-09-18T05:17:15;26.00;43.30
80701;DHT22;71609;42.630;23.380;2023-09-18T05:19:42;26.00;43.20
80701;DHT22;71609;42.630;23.380;2023-09-18T05:22:08;26.00;43.30
80701;DHT22;71609;42.630;23.380;2023-09-18T05:24:40;26.00;43.40
80701;DHT22;71609;42.630;23.380;2023-09-18T05:27:06;26.00;43.30
80701;DHT22;71609;42.630;23.380;2023-09-18T05:29:33;26.00;43.40
80701;DHT22;71609;42.630;23.380;2023-09-18T05:32:00;26.10;43.70
80701;DHT22;71609;42.630;23.380;2023-09-18T05:34:26;26.10;43.80
80701;DHT22;71609;42.630;23.380;2023-09-18T05:36:52;26.20;43.90
80701;DHT22;71609;42.630;23.380;2023-09-18T05:39:18;26.20;44.00
80701;DHT22;71609;42.630;23.380;2023-09-18T05:41:43;26.30;43.90
80701;DHT22;71609;42.630;23.380;2023-09-18T05:44:09;26.40;43.90
80701;DHT22;71609;42.630;23.380;2023-09-18T05:46:35;26.40;44.00
80701;DHT22;71609;42.630;23.380;2023-09-18T05:49:02;26.50;44.00
80701;DHT22;71609;42.630;23.380;2023-09-18T05:51:27;26.60;43.60
80701;DHT22;71609;42.630;23.380;2023-09-18T05:53:53;26.70;43.40
80701;DHT22;71609;42.630;23.380;2023-09-18T05:56:19;26.70;43.20
80701;DHT22;71609;42.630;23.380;2023-09-18T05:58:45;26.80;43.20
80701;DHT22;71609;42.630;23.380;2023-09-18T06:01:10;26.90;43.10
80701;DHT22;71609;42.630;23.380;2023-09-18T06:03:36;27.00;42.90
80701;DHT22;71609;42.630;23.380;2023-09-18T06:06:03;27.00;42.90
80701;DHT22;71609;42.630;23.380;2023-09-18T06:08:29;27.00;42.80
80701;DHT22;71609;42.630;23.380;2023-09-18T06:10:56;27.00;42.70
80701;DHT22;71609;42.630;23.380;2023-09-18T06:13:24;27.10;42.80
80701;DHT22;71609;42.630;23.380;2023-09-18T06:15:50;27.20;42.60
80701;DHT22;71609;42.630;23.380;2023-09-18T06:18:18;27.20;42.80
80701;DHT22;71609;42.630;23.380;2023-09-18T06:20:46;27.20;42.60
80701;DHT22;71609;42.630;23.380;2023-09-18T06:23:12;27.20;42.30
80701;DHT22;71609;42.630;23.380;2023-09-18T06:25:38;27.10;42.30
80701;DHT22;71609;42.630;23.380;2023-09-18T06:28:04;26.90;42.50
80701;DHT22;71609;42.630;23.380;2023-09-18T06:30:31;26.90;42.70
80701;DHT22;71609;42.630;23.380;2023-09-18T06:33:01;26.80;42.90
80701;DHT22;71609;42.630;23.380;2023-09-18T06:35:43;26.80;42.80
80701;DHT22;71609;42.630;23.380;2023-09-18T06:38:08;26.70;43.30
80701;DHT22;71609;42.630;23.380;2023-09-18T06:40:37;26.60;43.30
80701;DHT22;71609;42.630;23.380;2023-09-18T06:43:04;26.60;43.70
